createdAt,value
2024-01-11T00:01:19.703Z,99.90
2024-01-11T00:03:47.226Z,99.90
2024-01-11T00:06:14.938Z,99.90
2024-01-11T00:08:42.531Z,99.90
2024-01-11T00:11:10.024Z,99.90
2024-01-11T00:13:37.776Z,99.90
2024-01-11T00:16:05.584Z,99.90
2024-01-11T00:18:33.234Z,99.90
2024-01-11T00:21:00.731Z,99.90
2024-01-11T00:23:28.207Z,99.90
2024-01-11T00:25:55.814Z,99.90
2024-01-11T00:28:23.365Z,99.90
2024-01-11T00:30:50.974Z,99.90
2024-01-11T00:33:18.524Z,99.90
2024-01-11T00:35:46.155Z,99.90
2024-01-11T00:38:13.688Z,99.90
2024-01-11T00:40:41.143Z,99.90
2024-01-11T00:43:08.554Z,99.90
2024-01-11T00:45:36.677Z,99.90
2024-01-11T00:48:04.743Z,99.90
2024-01-11T00:50:32.598Z,99.90
2024-01-11T00:53:00.269Z,99.90
2024-01-11T00:55:27.703Z,99.90
2024-01-11T00:57:55.173Z,99.90
2024-01-11T01:00:23.490Z,99.90
2024-01-11T01:02:51.016Z,99.90
2024-01-11T01:05:18.526Z,99.90
2024-01-11T01:07:47.399Z,99.90
2024-01-11T01:10:14.770Z,99.90
2024-01-11T01:12:42.156Z,99.90
2024-01-11T01:15:09.881Z,99.90
2024-01-11T01:17:37.484Z,99.90
2024-01-11T01:20:05.672Z,99.90
2024-01-11T01:22:33.210Z,99.90
2024-01-11T01:25:00.738Z,99.90
2024-01-11T01:27:28.369Z,99.90
2024-01-11T01:29:55.872Z,99.90
2024-01-11T01:32:23.662Z,99.90
2024-01-11T01:34:51.362Z,99.90
2024-01-11T01:37:18.758Z,99.90
2024-01-11T01:39:46.210Z,99.90
2024-01-11T01:42:13.683Z,99.90
2024-01-11T01:44:42.752Z,99.90
2024-01-11T01:47:12.440Z,99.90
2024-01-11T01:49:40.768Z,99.90
2024-01-11T01:52:09.467Z,99.90
2024-01-11T01:54:37.279Z,99.90
2024-01-11T01:57:05.802Z,99.90
2024-01-11T01:59:33.553Z,99.90
2024-01-11T02:02:01.717Z,99.90
2024-01-11T02:04:29.614Z,99.90
2024-01-11T02:06:59.381Z,99.90
2024-01-11T02:09:26.885Z,99.90
2024-01-11T02:11:55.506Z,99.90
2024-01-11T02:14:23.210Z,99.90
2024-01-11T02:16:50.677Z,99.90
2024-01-11T02:19:20.703Z,99.90
2024-01-11T02:21:51.285Z,99.90
2024-01-11T02:24:19.438Z,99.90
2024-01-11T02:27:00.350Z,99.90
2024-01-11T02:29:29.263Z,99.90
2024-01-11T02:31:57.566Z,99.90
2024-01-11T02:34:27.171Z,99.90
2024-01-11T02:36:55.763Z,99.90
2024-01-11T02:39:24.801Z,99.90
2024-01-11T02:41:53.944Z,99.90
2024-01-11T02:44:21.523Z,99.90
2024-01-11T02:46:48.918Z,99.90
2024-01-11T02:49:16.959Z,99.90
2024-01-11T02:51:44.616Z,99.90
2024-01-11T02:54:12.175Z,99.90
2024-01-11T02:56:39.610Z,99.90
2024-01-11T02:59:07.197Z,99.90
2024-01-11T03:01:34.682Z,99.90
2024-01-11T03:04:03.421Z,99.90
2024-01-11T03:06:30.907Z,99.90
2024-01-11T03:08:58.401Z,99.90
2024-01-11T03:11:25.890Z,99.90
2024-01-11T03:13:53.415Z,99.90
2024-01-11T03:16:21.071Z,99.90
2024-01-11T03:18:48.630Z,99.90
2024-01-11T03:21:16.103Z,99.90
2024-01-11T03:23:43.713Z,99.90
2024-01-11T03:26:18.389Z,99.90
2024-01-11T03:28:45.958Z,99.90
2024-01-11T03:31:13.445Z,99.90
2024-01-11T03:33:41.251Z,99.90
2024-01-11T03:36:10.254Z,99.90
2024-01-11T03:38:37.965Z,99.90
2024-01-11T03:41:12.058Z,99.90
2024-01-11T03:43:39.676Z,99.90
2024-01-11T03:46:07.350Z,99.90
2024-01-11T03:48:37.369Z,99.90
2024-01-11T03:51:05.274Z,99.90
2024-01-11T03:53:37.464Z,99.90
2024-01-11T03:56:05.340Z,99.90
2024-01-11T03:58:32.970Z,99.90
2024-01-11T04:01:01.437Z,99.90
2024-01-11T04:03:28.985Z,99.90
2024-01-11T04:05:56.439Z,99.90
2024-01-11T04:08:25.731Z,99.90
2024-01-11T04:10:53.313Z,99.90
2024-01-11T04:13:22.847Z,99.90
2024-01-11T04:15:52.476Z,99.90
2024-01-11T04:18:20.038Z,99.90
2024-01-11T04:20:47.545Z,99.90
2024-01-11T04:23:15.122Z,99.90
2024-01-11T04:25:42.642Z,99.90
2024-01-11T04:28:11.152Z,99.90
2024-01-11T04:30:39.008Z,99.90
2024-01-11T04:33:06.794Z,99.90
2024-01-11T04:35:34.501Z,99.90
2024-01-11T04:38:02.156Z,99.90
2024-01-11T04:40:29.694Z,99.90
2024-01-11T04:42:58.021Z,99.90
2024-01-11T04:45:25.619Z,99.90
2024-01-11T04:47:53.617Z,99.90
2024-01-11T04:50:22.920Z,99.90
2024-01-11T04:52:50.812Z,99.90
2024-01-11T04:55:18.312Z,99.90
2024-01-11T04:57:45.993Z,99.90
2024-01-11T05:00:14.135Z,99.90
2024-01-11T05:02:41.673Z,99.90
2024-01-11T05:05:09.343Z,99.90
2024-01-11T05:07:36.905Z,99.90
2024-01-11T05:10:05.345Z,99.90
2024-01-11T05:12:34.415Z,99.90
2024-01-11T05:15:01.873Z,99.90
2024-01-11T05:17:29.528Z,99.90
2024-01-11T05:19:57.018Z,99.90
2024-01-11T05:22:24.716Z,99.90
2024-01-11T05:24:52.146Z,99.90
2024-01-11T05:27:19.510Z,99.90
2024-01-11T05:29:47.040Z,99.90
2024-01-11T05:32:14.713Z,99.90
2024-01-11T05:34:42.933Z,99.90
2024-01-11T05:37:10.617Z,99.90
2024-01-11T05:39:38.095Z,99.90
2024-01-11T05:42:05.892Z,99.90
2024-01-11T05:44:33.959Z,99.90
2024-01-11T05:47:01.547Z,99.90
2024-01-11T05:49:29.029Z,99.90
2024-01-11T05:51:56.569Z,99.90
2024-01-11T05:54:23.969Z,99.90
2024-01-11T05:56:57.371Z,99.90
2024-01-11T05:59:24.942Z,99.90
2024-01-11T06:01:53.294Z,99.90
2024-01-11T06:04:20.865Z,99.90
2024-01-11T06:06:48.372Z,99.90
2024-01-11T06:09:15.781Z,99.90
2024-01-11T06:11:43.445Z,99.90
2024-01-11T06:14:11.193Z,99.90
2024-01-11T06:16:38.643Z,99.90
2024-01-11T06:19:06.201Z,99.90
2024-01-11T06:21:33.706Z,99.90
2024-01-11T06:24:01.167Z,99.90
2024-01-11T06:26:28.870Z,99.90
2024-01-11T06:28:56.376Z,99.90
2024-01-11T06:31:23.739Z,99.90
2024-01-11T06:33:51.718Z,99.90
2024-01-11T06:36:19.362Z,99.90
2024-01-11T06:38:46.773Z,99.90
2024-01-11T06:41:14.895Z,99.90
2024-01-11T06:43:42.340Z,99.90
2024-01-11T06:46:11.493Z,99.90
2024-01-11T06:48:39.892Z,99.90
2024-01-11T06:51:07.420Z,99.90
2024-01-11T06:53:35.007Z,99.90
2024-01-11T06:56:02.662Z,99.90
2024-01-11T06:58:30.099Z,99.90
2024-01-11T07:00:57.670Z,99.90
2024-01-11T07:03:25.164Z,99.90
2024-01-11T07:05:52.863Z,99.90
2024-01-11T07:08:20.437Z,99.90
2024-01-11T07:10:50.348Z,99.90
2024-01-11T07:13:19.348Z,99.90
2024-01-11T07:15:46.996Z,99.90
2024-01-11T07:18:14.288Z,99.90
2024-01-11T07:20:42.183Z,99.90
2024-01-11T07:23:09.678Z,99.90
2024-01-11T07:25:38.004Z,99.90
2024-01-11T07:28:05.689Z,99.90
2024-01-11T07:30:33.165Z,99.90
2024-01-11T07:33:00.847Z,99.90
2024-01-11T07:35:28.372Z,99.90
2024-01-11T07:37:55.932Z,99.90
2024-01-11T07:40:23.324Z,99.90
2024-01-11T07:42:51.320Z,99.90
2024-01-11T07:45:18.961Z,99.90
2024-01-11T07:47:46.589Z,99.90
2024-01-11T07:50:14.231Z,99.90
2024-01-11T07:52:44.360Z,99.90
2024-01-11T07:55:14.253Z,99.90
2024-01-11T07:57:42.549Z,99.90
2024-01-11T08:00:10.653Z,99.90
2024-01-11T08:02:39.499Z,99.90
2024-01-11T08:05:07.385Z,99.90
2024-01-11T08:07:34.732Z,99.90
2024-01-11T08:10:01.922Z,99.90
2024-01-11T08:12:30.098Z,99.90
2024-01-11T08:14:57.577Z,99.90
2024-01-11T08:17:24.946Z,99.90
2024-01-11T08:19:52.195Z,99.90
2024-01-11T08:22:19.590Z,99.90
2024-01-11T08:24:46.805Z,99.90
2024-01-11T08:27:14.138Z,99.90
2024-01-11T08:29:42.501Z,99.90
2024-01-11T08:32:19.561Z,99.90
2024-01-11T08:34:56.071Z,99.90
2024-01-11T08:37:24.426Z,99.90
2024-01-11T08:39:52.330Z,99.90
2024-01-11T08:42:19.657Z,99.90
2024-01-11T08:44:47.031Z,99.90
2024-01-11T08:47:14.408Z,99.90
2024-01-11T08:49:41.779Z,99.90
2024-01-11T08:52:09.671Z,99.90
2024-01-11T08:54:37.033Z,99.90
2024-01-11T08:57:04.689Z,99.90
2024-01-11T08:59:32.518Z,99.90
2024-01-11T09:02:10.346Z,99.90
2024-01-11T09:04:43.308Z,99.90
2024-01-11T09:07:10.588Z,99.90
2024-01-11T09:09:44.356Z,99.90
2024-01-11T09:12:18.208Z,99.90
2024-01-11T09:14:45.725Z,99.90
2024-01-11T09:17:13.259Z,99.90
2024-01-11T09:19:41.539Z,99.90
2024-01-11T09:22:12.046Z,99.90
2024-01-11T09:24:40.280Z,99.90
2024-01-11T09:27:08.376Z,99.90
2024-01-11T09:29:35.986Z,99.90
2024-01-11T09:32:03.794Z,99.90
2024-01-11T09:34:31.847Z,99.90
2024-01-11T09:37:00.769Z,99.90
2024-01-11T09:39:28.430Z,99.90
2024-01-11T09:42:14.393Z,99.90
2024-01-11T09:44:43.219Z,99.90
2024-01-11T09:47:16.118Z,99.90
2024-01-11T09:49:46.477Z,99.90
2024-01-11T09:52:16.861Z,99.90
2024-01-11T09:54:44.312Z,99.90
2024-01-11T09:57:12.105Z,99.90
2024-01-11T09:59:40.250Z,99.90
2024-01-11T10:02:11.693Z,99.90
2024-01-11T10:04:39.222Z,99.90
2024-01-11T10:07:08.529Z,99.90
2024-01-11T10:09:36.618Z,99.90
2024-01-11T10:12:04.837Z,99.90
2024-01-11T10:14:33.425Z,99.90
2024-01-11T10:17:01.613Z,99.90
2024-01-11T10:19:29.273Z,99.90
2024-01-11T10:21:56.671Z,99.90
2024-01-11T10:24:27.600Z,99.90
2024-01-11T10:26:58.933Z,99.80
2024-01-11T10:29:33.397Z,98.70
2024-01-11T10:32:00.944Z,98.90
2024-01-11T10:34:28.644Z,98.40
2024-01-11T10:36:56.302Z,98.10
2024-01-11T10:39:28.993Z,97.20
2024-01-11T10:42:07.712Z,96.30
2024-01-11T10:44:37.509Z,97.10
2024-01-11T10:47:09.034Z,96.60
2024-01-11T10:49:40.735Z,96.60
2024-01-11T10:52:09.863Z,96.90
2024-01-11T10:54:40.165Z,96.60
2024-01-11T10:57:09.162Z,95.70
2024-01-11T10:59:40.382Z,95.90
2024-01-11T11:02:13.953Z,94.90
2024-01-11T11:04:43.355Z,95.00
2024-01-11T11:07:13.115Z,95.60
2024-01-11T11:09:45.484Z,95.70
2024-01-11T11:12:13.237Z,95.80
2024-01-11T11:14:41.674Z,94.90
2024-01-11T11:17:09.748Z,94.20
2024-01-11T11:19:38.424Z,94.20
2024-01-11T11:22:06.802Z,93.30
2024-01-11T11:24:37.567Z,93.80
2024-01-11T11:27:05.184Z,95.70
2024-01-11T11:29:32.649Z,98.80
2024-01-11T11:32:01.183Z,99.90
2024-01-11T11:34:46.472Z,99.90
2024-01-11T11:37:14.256Z,99.90
2024-01-11T11:39:44.189Z,99.90
2024-01-11T11:42:13.048Z,99.90
2024-01-11T11:44:51.342Z,99.90
2024-01-11T11:47:24.241Z,99.90
2024-01-11T11:50:02.501Z,99.90
2024-01-11T11:52:30.786Z,99.90
2024-01-11T11:54:58.735Z,99.90
2024-01-11T11:57:26.322Z,99.90
2024-01-11T11:59:55.498Z,99.90
2024-01-11T12:02:25.437Z,99.90
2024-01-11T12:04:53.105Z,99.90
2024-01-11T12:07:24.522Z,99.90
2024-01-11T12:09:53.976Z,99.90
2024-01-11T12:12:22.573Z,99.90
2024-01-11T12:14:50.984Z,99.90
2024-01-11T12:17:18.447Z,98.90
2024-01-11T12:19:46.863Z,97.70
2024-01-11T12:22:14.222Z,97.50
2024-01-11T12:24:41.617Z,97.10
2024-01-11T12:27:09.047Z,96.40
2024-01-11T12:29:44.071Z,94.40
2024-01-11T12:32:19.859Z,94.40
2024-01-11T12:34:48.787Z,94.50
2024-01-11T12:37:17.436Z,93.00
2024-01-11T12:39:44.744Z,90.70
2024-01-11T12:42:12.308Z,90.90
2024-01-11T12:44:41.306Z,89.60
2024-01-11T12:47:09.735Z,88.30
2024-01-11T12:49:37.540Z,88.00
2024-01-11T12:52:05.796Z,88.30
2024-01-11T12:54:35.011Z,86.60
2024-01-11T12:57:03.904Z,87.80
2024-01-11T12:59:31.536Z,86.70
2024-01-11T13:02:00.746Z,85.10
2024-01-11T13:04:28.459Z,84.40
2024-01-11T13:06:57.318Z,86.40
2024-01-11T13:09:24.857Z,85.40
2024-01-11T13:11:52.440Z,87.70
2024-01-11T13:14:20.797Z,85.80
2024-01-11T13:16:50.077Z,85.00
2024-01-11T13:19:24.496Z,85.50
2024-01-11T13:21:56.409Z,87.30
2024-01-11T13:24:23.707Z,87.00
2024-01-11T13:26:51.301Z,86.30
2024-01-11T13:29:18.789Z,84.80
2024-01-11T13:31:46.585Z,85.10
2024-01-11T13:34:13.940Z,85.40
2024-01-11T13:36:41.544Z,82.40
2024-01-11T13:39:12.187Z,81.70
2024-01-11T13:41:42.253Z,81.20
2024-01-11T13:44:10.943Z,79.40
2024-01-11T13:46:38.545Z,78.60
2024-01-11T13:49:06.165Z,79.20
2024-01-11T13:51:42.587Z,78.90
2024-01-11T13:54:13.956Z,78.20
2024-01-11T13:56:41.800Z,79.50
2024-01-11T13:59:09.312Z,79.00
2024-01-11T14:01:36.808Z,77.70
2024-01-11T14:04:04.845Z,77.50
2024-01-11T14:06:32.313Z,79.20
2024-01-11T14:08:59.660Z,79.10
2024-01-11T14:11:26.972Z,79.10
2024-01-11T14:13:54.321Z,76.60
2024-01-11T14:16:25.228Z,76.50
2024-01-11T14:18:52.843Z,72.50
2024-01-11T14:21:21.305Z,72.40
2024-01-11T14:23:48.647Z,73.70
2024-01-11T14:26:15.963Z,71.90
2024-01-11T14:28:44.099Z,70.20
2024-01-11T14:31:13.169Z,69.90
2024-01-11T14:33:40.554Z,71.60
2024-01-11T14:36:08.136Z,70.80
2024-01-11T14:38:35.512Z,69.50
2024-01-11T14:41:03.920Z,71.70
2024-01-11T14:43:31.365Z,72.50
2024-01-11T14:45:58.685Z,70.90
2024-01-11T14:48:26.218Z,71.10
2024-01-11T14:50:54.896Z,70.60
2024-01-11T14:53:22.417Z,71.00
2024-01-11T14:55:50.381Z,70.30
2024-01-11T14:58:18.355Z,70.60
2024-01-11T15:00:45.726Z,71.00
2024-01-11T15:03:13.002Z,73.20
2024-01-11T15:05:40.402Z,72.30
2024-01-11T15:08:07.759Z,72.60
2024-01-11T15:10:35.098Z,73.70
2024-01-11T15:13:02.241Z,72.10
2024-01-11T15:15:30.349Z,72.80
2024-01-11T15:17:57.657Z,73.30
2024-01-11T15:20:24.954Z,73.40
2024-01-11T15:22:52.212Z,73.50
2024-01-11T15:25:19.947Z,75.00
2024-01-11T15:27:47.251Z,75.20
2024-01-11T15:30:14.953Z,75.00
2024-01-11T15:32:42.575Z,74.90
2024-01-11T15:35:09.955Z,76.20
2024-01-11T15:37:37.562Z,76.20
2024-01-11T15:40:05.537Z,76.80
2024-01-11T15:42:33.141Z,74.50
2024-01-11T15:45:00.745Z,75.00
2024-01-11T15:47:28.403Z,75.60
2024-01-11T15:49:55.806Z,77.00
2024-01-11T15:52:23.202Z,76.00
2024-01-11T15:54:50.518Z,75.80
2024-01-11T15:57:19.380Z,76.10
2024-01-11T15:59:47.114Z,75.40
2024-01-11T16:02:15.885Z,78.60
2024-01-11T16:04:45.477Z,76.40
2024-01-11T16:07:12.816Z,76.00
2024-01-11T16:09:40.095Z,77.80
2024-01-11T16:12:08.006Z,78.90
2024-01-11T16:14:35.676Z,77.20
2024-01-11T16:17:04.057Z,76.90
2024-01-11T16:19:32.602Z,78.00
2024-01-11T16:21:59.955Z,77.20
2024-01-11T16:24:27.427Z,77.60
2024-01-11T16:26:54.777Z,77.70
2024-01-11T16:29:22.291Z,78.30
2024-01-11T16:31:50.697Z,79.10
2024-01-11T16:34:18.101Z,79.10
2024-01-11T16:36:46.472Z,79.70
2024-01-11T16:39:13.942Z,79.50
2024-01-11T16:41:42.418Z,79.50
2024-01-11T16:44:10.330Z,80.00
2024-01-11T16:46:37.668Z,80.90
2024-01-11T16:49:05.213Z,80.90
2024-01-11T16:51:33.175Z,81.20
2024-01-11T16:54:00.635Z,80.80
2024-01-11T16:56:28.186Z,81.70
2024-01-11T16:58:56.331Z,81.20
2024-01-11T17:01:24.602Z,81.20
2024-01-11T17:03:52.102Z,81.60
2024-01-11T17:06:20.908Z,82.00
2024-01-11T17:08:48.846Z,83.10
2024-01-11T17:11:16.510Z,82.70
2024-01-11T17:13:44.038Z,85.30
2024-01-11T17:16:21.437Z,83.40
2024-01-11T17:18:49.322Z,84.00
2024-01-11T17:21:17.036Z,85.60
2024-01-11T17:23:44.865Z,84.40
2024-01-11T17:26:12.428Z,85.00
2024-01-11T17:28:39.899Z,84.80
2024-01-11T17:31:09.662Z,84.60
2024-01-11T17:33:37.283Z,86.70
2024-01-11T17:36:06.680Z,87.40
2024-01-11T17:38:34.295Z,87.80
2024-01-11T17:41:02.452Z,86.90
2024-01-11T17:43:29.831Z,87.60
2024-01-11T17:45:57.243Z,88.70
2024-01-11T17:48:24.704Z,88.40
2024-01-11T17:50:52.144Z,88.50
2024-01-11T17:53:19.711Z,90.00
2024-01-11T17:55:47.875Z,90.00
2024-01-11T17:58:15.222Z,89.90
2024-01-11T18:00:43.143Z,90.00
2024-01-11T18:03:10.359Z,90.20
2024-01-11T18:05:39.634Z,90.30
2024-01-11T18:08:07.878Z,90.00
2024-01-11T18:10:38.741Z,90.30
2024-01-11T18:13:06.115Z,90.30
2024-01-11T18:15:33.505Z,90.40
2024-01-11T18:18:01.641Z,90.70
2024-01-11T18:20:29.610Z,90.30
2024-01-11T18:22:57.033Z,90.70
2024-01-11T18:25:25.174Z,90.80
2024-01-11T18:27:52.671Z,90.70
2024-01-11T18:30:20.204Z,90.80
2024-01-11T18:32:47.645Z,90.80
2024-01-11T18:35:15.214Z,90.70
2024-01-11T18:37:42.560Z,91.00
2024-01-11T18:40:10.553Z,90.70
2024-01-11T18:42:37.979Z,91.00
2024-01-11T18:45:05.699Z,90.50
2024-01-11T18:47:33.124Z,90.70
2024-01-11T18:50:02.729Z,90.60
2024-01-11T18:52:32.018Z,91.10
2024-01-11T18:55:08.015Z,91.10
2024-01-11T18:57:40.525Z,91.30
2024-01-11T19:00:08.403Z,91.20
2024-01-11T19:02:35.720Z,91.30
2024-01-11T19:05:03.175Z,91.40
2024-01-11T19:07:31.239Z,91.70
2024-01-11T19:09:58.677Z,91.90
2024-01-11T19:12:26.167Z,91.70
2024-01-11T19:14:53.832Z,91.40
2024-01-11T19:17:21.395Z,91.90
2024-01-11T19:19:48.769Z,92.10
2024-01-11T19:22:16.192Z,91.90
2024-01-11T19:24:43.545Z,91.80
2024-01-11T19:27:10.769Z,92.00
2024-01-11T19:29:38.221Z,92.20
2024-01-11T19:32:05.712Z,92.30
2024-01-11T19:34:33.147Z,92.40
2024-01-11T19:37:00.517Z,92.50
2024-01-11T19:39:27.827Z,92.60
2024-01-11T19:41:55.504Z,92.80
2024-01-11T19:44:25.183Z,93.10
2024-01-11T19:46:56.127Z,93.10
2024-01-11T19:49:23.604Z,93.20
2024-01-11T19:51:51.447Z,93.20
2024-01-11T19:54:18.793Z,93.40
2024-01-11T19:56:46.025Z,93.60
2024-01-11T19:59:14.485Z,93.80
2024-01-11T20:01:41.714Z,93.80
2024-01-11T20:04:09.093Z,93.30
2024-01-11T20:06:36.511Z,93.40
2024-01-11T20:09:05.493Z,93.30
2024-01-11T20:11:33.034Z,92.80
2024-01-11T20:14:00.393Z,92.60
2024-01-11T20:16:27.893Z,93.10
2024-01-11T20:18:55.528Z,92.30
2024-01-11T20:21:24.651Z,92.50
2024-01-11T20:23:52.070Z,92.40
2024-01-11T20:26:24.739Z,92.70
2024-01-11T20:28:53.555Z,92.10
2024-01-11T20:31:22.460Z,91.80
2024-01-11T20:33:50.093Z,91.90
2024-01-11T20:36:17.678Z,91.80
2024-01-11T20:38:45.124Z,91.90
2024-01-11T20:41:15.188Z,91.90
2024-01-11T20:43:42.812Z,92.10
2024-01-11T20:46:10.141Z,92.10
2024-01-11T20:48:37.701Z,91.80
2024-01-11T20:51:05.234Z,91.60
2024-01-11T20:53:32.966Z,92.00
2024-01-11T20:56:00.605Z,92.00
2024-01-11T20:58:28.100Z,91.80
2024-01-11T21:00:55.538Z,92.00
2024-01-11T21:03:23.120Z,92.30
2024-01-11T21:05:55.234Z,92.20
2024-01-11T21:08:22.965Z,92.20
2024-01-11T21:10:50.431Z,91.90
2024-01-11T21:13:17.934Z,92.10
2024-01-11T21:15:45.397Z,92.00
2024-01-11T21:18:14.661Z,92.20
2024-01-11T21:20:44.746Z,91.90
2024-01-11T21:23:12.129Z,92.10
2024-01-11T21:25:39.574Z,92.30
2024-01-11T21:28:07.181Z,92.30
2024-01-11T21:30:34.631Z,92.30
2024-01-11T21:33:02.140Z,92.60
2024-01-11T21:35:29.590Z,92.20
2024-01-11T21:37:56.998Z,92.50
2024-01-11T21:40:24.459Z,93.10
2024-01-11T21:42:51.855Z,92.80
2024-01-11T21:45:19.256Z,93.00
2024-01-11T21:47:48.368Z,93.00
2024-01-11T21:50:16.801Z,93.50
2024-01-11T21:52:44.179Z,93.20
2024-01-11T21:55:11.746Z,92.80
2024-01-11T21:57:39.293Z,93.00
2024-01-11T22:00:07.470Z,93.20
2024-01-11T22:02:35.047Z,93.10
2024-01-11T22:05:02.384Z,93.30
2024-01-11T22:07:30.675Z,93.00
2024-01-11T22:09:58.063Z,93.50
2024-01-11T22:12:25.569Z,94.00
2024-01-11T22:14:53.074Z,94.20
2024-01-11T22:17:20.616Z,93.90
2024-01-11T22:19:49.181Z,94.00
2024-01-11T22:22:16.665Z,94.20
2024-01-11T22:24:44.078Z,94.20
2024-01-11T22:27:11.418Z,94.20
2024-01-11T22:29:38.945Z,94.60
2024-01-11T22:32:06.475Z,95.20
2024-01-11T22:34:33.960Z,95.10
2024-01-11T22:37:01.346Z,94.80
2024-01-11T22:39:28.692Z,94.50
2024-01-11T22:41:56.182Z,94.80
2024-01-11T22:44:23.624Z,94.20
2024-01-11T22:46:50.954Z,94.50
2024-01-11T22:49:18.382Z,94.50
2024-01-11T22:51:45.679Z,94.40
2024-01-11T22:54:13.018Z,94.20
2024-01-11T22:56:40.338Z,94.10
2024-01-11T22:59:10.954Z,94.50
2024-01-11T23:01:39.022Z,94.40
2024-01-11T23:04:06.416Z,94.40
2024-01-11T23:06:36.585Z,94.90
2024-01-11T23:09:04.049Z,95.00
2024-01-11T23:11:31.821Z,95.10
2024-01-11T23:13:59.206Z,95.30
2024-01-11T23:16:28.273Z,95.40
2024-01-11T23:18:56.351Z,95.60
2024-01-11T23:21:23.820Z,95.80
2024-01-11T23:23:51.334Z,95.90
2024-01-11T23:26:18.714Z,95.90
2024-01-11T23:28:46.147Z,96.00
2024-01-11T23:31:13.834Z,96.00
2024-01-11T23:33:41.497Z,96.00
2024-01-11T23:36:09.331Z,95.90
2024-01-11T23:38:36.675Z,96.00
2024-01-11T23:41:04.249Z,96.20
2024-01-11T23:43:32.148Z,96.30
2024-01-11T23:45:59.830Z,96.40
2024-01-11T23:48:27.634Z,96.50
2024-01-11T23:50:55.412Z,96.50
2024-01-11T23:53:22.815Z,96.50
2024-01-11T23:55:50.263Z,96.40
2024-01-11T23:58:17.647Z,96.40
